Terminal Aerodrome Forecast
Issued by NWS

Home | Current Version | Previous Version | Graphics & Text | Print | Product List | Glossary On
Versions: 1 2 3 4 5 6 7 8 9 10 11 12 13 14
000
FTUS45 KGGW 270526
TAFOLF
TAF
KOLF 270526Z 2706/2806 07005KT P6SM -RA OVC006
     FM280000 08011KT P6SM -RASN OVC015
     FM280400 07009KT P6SM -RASN OVC025=

USA.gov is the U.S. government's official web portal to all federal, state and local government web resources and services.